Latest Coastal Weather Observations for Cerberus

IDV60701

Issued at 12:12 am EST Sunday 26 June 2022 (issued every 10 minutes, with the page automatically refreshed every 10 minutes)

About coastal observations | Map of coastal stations | Coastal observations for VIC | Marine services | Other Formats
Station Details ID: 086361 Name: CERBERUS Lat: -38.36 Lon: 145.18 Height: 12.69 m
Data from the previous 72 hours. | See also: Recent months at Cerberus
Date/Time
EST
Wind Sea
Height
m
Swell Vis
km
Cloud Weather Temp
°C
Press
MSL
hPa
Rain since
9am
mm
Dir  Spd
kts
Gust
kts
Height
m
Period
s
Dir
26/12:00am NNW 6 11 - - - - - - - 12.0 1019.5 0.0
 
Date/Time
EST
Wind Sea
Height
m
Swell Vis
km
Cloud Weather Temp
°C
Press
MSL
hPa
Rain since
9am
mm
Dir  Spd
kts
Gust
kts
Height
m
Period
s
Dir
25/11:30pm NNW 8 18 - - - - - - - 12.3 1019.6 0.0
25/11:00pm NNW 7 18 - - - - - - - 12.8 1019.3 0.0
25/10:30pm NNW 8 17 - - - - - - - 13.0 1019.3 0.0
25/10:00pm NNW 8 14 - - - - - - - 12.9 1019.2 0.0
25/09:30pm NNW 7 15 - - - - - - - 13.0 1019.0 0.0
25/09:00pm NNW 8 13 - - - - - - - 13.1 1019.0 0.0
25/08:30pm NNW 9 16 - - - - - - - 13.2 1019.0 0.0
25/08:00pm NNW 10 19 - - - - - - - 13.4 1019.0 0.0
25/07:30pm NNW 10 17 - - - - - - - 13.5 1018.8 0.0
25/07:00pm NNW 9 16 - - - - - - - 13.7 1018.4 0.0
25/06:30pm NNW 7 12 - - - - - - - 13.3 1018.2 0.0
25/06:00pm NNW 7 13 - - - - - - - 13.5 1017.8 0.0
25/05:30pm NNW 7 15 - - - - - - - 13.9 1018.0 0.0
25/05:00pm NW 10 15 - - - - - - - 14.0 1017.7 0.0
25/04:30pm NW 8 14 - - - - - - - 14.0 1017.7 0.0
25/04:00pm NW 8 15 - - - - - - - 14.3 1017.9 0.0
25/03:30pm NNW 8 15 - - - - - - - 14.6 1017.8 0.0
25/03:00pm NNW 9 18 - - - - - - - 15.2 1017.7 0.0
25/02:30pm NW 9 15 - - - - - - - 15.0 1017.7 0.0
25/02:00pm NW 11 18 - - - - - - - 14.5 1017.9 0.0
25/01:30pm NW 13 25 - - - - - - - 15.1 1017.9 0.0
25/01:00pm NW 14 22 - - - - - - - 14.8 1018.0 0.0
25/12:30pm NNW 14 24 - - - - - - - 14.3 1017.9 0.0
25/12:00pm NNW 12 21 - - - - - - - 14.3 1018.2 0.0
25/11:30am NW 13 20 - - - - - - - 14.0 1018.4 0.0
25/11:00am NNW 13 19 - - - - - - - 13.6 1018.8 0.0
25/10:30am NW 10 18 - - - - - - - 13.6 1019.0 0.0
25/10:00am NW 9 16 - - - - - - - 13.0 1019.0 0.0
25/09:30am NNW 8 15 - - - - - - - 12.5 1018.4 0.0
25/09:00am NNW 6 11 - - - - - - - 11.9 1018.4 0.2
25/08:30am NNW 8 15 - - - - - - - 11.4 1018.0 0.2
25/08:00am NW 9 15 - - - - - - - 10.5 1017.8 0.2
25/07:30am NW 7 13 - - - - - - - 10.3 1017.8 0.2
25/07:00am NW 8 15 - - - - - - - 11.1 1017.6 0.2
25/06:30am NNW 8 15 - - - - - - - 10.7 1017.1 0.2
25/06:00am NNW 5 9 - - - - - - - 10.8 1016.9 0.2
25/05:30am NW 5 9 - - - - - - - 10.3 1016.7 0.2
25/05:00am NW 5 9 - - - - - - - 9.8 1016.3 0.2
25/04:30am NNW 6 8 - - - - - - - 10.0 1016.3 0.2
25/04:00am NNW 6 14 - - - - - - - 10.1 1016.3 0.2
25/03:30am NNW 4 5 - - - - - - - 9.7 1016.2 0.2
25/03:00am N 4 7 - - - - - - - 10.4 1016.3 0.2
25/02:30am NNW 3 5 - - - - - - - 10.1 1016.5 0.2
25/02:00am NW 5 8 - - - - - - - 10.1 1016.5 0.2
25/01:30am NW 5 7 - - - - - - - 10.6 1016.3 0.2
25/01:00am NW 5 8 - - - - - - - 10.7 1016.4 0.2
25/12:30am NW 3 4 - - - - - - - 9.6 1016.4 0.2
25/12:00am NW 6 9 - - - - - - - 10.0 1016.6 0.2
 
Date/Time
EST
Wind Sea
Height
m
Swell Vis
km
Cloud Weather Temp
°C
Press
MSL
hPa
Rain since
9am
mm
Dir  Spd
kts
Gust
kts
Height
m
Period
s
Dir
24/11:30pm NW 5 8 - - - - - - - 10.0 1016.7 0.2
24/11:00pm NW 3 5 - - - - - - - 8.9 1016.7 0.2
24/10:30pm NW 3 3 - - - - - - - 9.2 1016.7 0.2
24/10:00pm NW 3 5 - - - - - - - 10.3 1016.8 0.2
24/09:30pm NW 4 7 - - - - - - - 10.5 1016.8 0.2
24/09:00pm NW 3 5 - - - - - - - 10.2 1016.7 0.2
24/08:30pm WNW 4 5 - - - - - - - 11.6 1016.7 0.2
24/08:00pm WNW 6 9 - - - - - - - 12.0 1016.7 0.2
24/07:30pm WNW 7 11 - - - - - - - 11.7 1016.6 0.2
24/07:00pm NW 4 5 - - - - - - - 11.1 1016.2 0.2
24/06:30pm WNW 4 7 - - - - - - - 11.8 1015.8 0.2
24/06:00pm WNW 5 8 - - - - - - - 11.8 1015.6 0.2
24/05:30pm WNW 5 10 - - - - - - - 11.9 1015.3 0.2
24/05:00pm NW 5 9 - - - - - - - 12.4 1015.0 0.2
24/04:30pm WNW 6 10 - - - - - - - 12.8 1014.7 0.2
24/04:00pm WNW 8 12 - - - - - - - 13.7 1014.7 0.2
24/03:30pm NW 8 12 - - - - - - - 14.0 1014.6 0.2
24/03:00pm WNW 8 13 - - - - - - - 14.7 1014.5 0.2
24/02:30pm WNW 8 12 - - - - - - - 15.0 1014.1 0.2
24/02:00pm WNW 9 18 - - - - - - - 14.5 1014.1 0.2
24/01:30pm WNW 8 14 - - - - - - - 14.3 1014.3 0.2
24/01:00pm WNW 8 14 - - - - - - - 13.0 1014.4 0.2
24/12:30pm WNW 11 17 - - - - - - - 14.3 1014.4 0.2
24/12:00pm WNW 10 16 - - - - - - Recent precip. 14.5 1014.3 0.2
24/11:30am WNW 11 16 - - - - - - - 14.2 1014.3 0.0
24/11:00am WNW 10 15 - - - - - - - 13.8 1014.4 0.0
24/10:30am WNW 10 14 - - - - - - - 13.3 1014.4 0.0
24/10:00am WNW 10 14 - - - - - - - 12.7 1014.1 0.0
24/09:30am WNW 9 15 - - - - - - - 12.7 1013.8 0.0
24/09:00am NW 9 15 - - - - - - - 12.5 1013.4 6.6
24/08:30am NW 8 13 - - - - - - - 12.2 1013.1 6.6
24/08:00am NW 7 11 - - - - - - - 12.1 1012.9 6.6
24/07:30am NW 6 9 - - - - - - - 11.8 1012.8 6.6
24/07:00am NNW 6 10 - - - - - - - 11.9 1012.4 6.6
24/06:30am NW 6 11 - - - - - - - 12.1 1012.0 6.6
24/06:00am NNW 8 14 - - - - - - Recent precip. 11.9 1011.4 6.6
24/05:30am NNW 5 8 - - - - - - - 11.7 1011.1 6.6
24/05:00am NW 7 12 - - - - - - - 11.9 1011.2 5.8
24/04:30am NNW 7 14 - - - - - - - 12.2 1010.8 3.4
24/04:00am NNW 11 17 - - - - - - - 12.7 1010.6 1.4
24/03:30am NNW 10 15 - - - - - - - 12.9 1010.8 0.4
24/03:00am NNW 11 19 - - - - - - Recent precip. 13.2 1011.0 0.2
24/02:30am NNW 13 22 - - - - - - - 14.3 1011.2 0.0
24/02:00am NNW 13 26 - - - - - - - 14.2 1011.2 0.0
24/01:40am NNW 15 29 - - - - - - - 14.5 1011.1 0.0
24/01:30am NNW 14 26 - - - - - - - 14.5 1011.1 0.0
24/01:19am NNW 15 26 - - - - - - - 14.7 1010.9 0.0
24/01:00am NNW 13 25 - - - - - - - 14.7 1011.0 0.0
24/12:30am NNW 12 22 - - - - - - - 14.7 1011.7 0.0
24/12:00am NNW 14 27 - - - - - - - 14.7 1011.8 0.0
 
Date/Time
EST
Wind Sea
Height
m
Swell Vis
km
Cloud Weather Temp
°C
Press
MSL
hPa
Rain since
9am
mm
Dir  Spd
kts
Gust
kts
Height
m
Period
s
Dir
23/11:42pm NNW 15 26 - - - - - - - 14.7 1012.0 0.0
23/11:30pm NNW 14 22 - - - - - - - 14.6 1012.1 0.0
23/11:00pm NNW 13 23 - - - - - - - 14.5 1012.3 0.0
23/10:30pm NNW 11 20 - - - - - - - 14.5 1012.4 0.0
23/10:00pm NNW 12 23 - - - - - - - 14.6 1012.7 0.0
23/09:30pm NNW 11 19 - - - - - - - 14.5 1013.5 0.0
23/09:00pm N 9 18 - - - - - - - 14.5 1013.7 0.0
23/08:30pm N 10 21 - - - - - - - 14.7 1014.2 0.0
23/08:00pm N 9 17 - - - - - - - 14.5 1014.6 0.0
23/07:30pm N 9 18 - - - - - - - 14.4 1014.7 0.0
23/07:00pm N 9 14 - - - - - - - 14.2 1014.8 0.0
23/06:30pm N 8 16 - - - - - - - 14.2 1015.1 0.0
23/06:00pm NNW 9 15 - - - - - - - 14.2 1015.2 0.0
23/05:30pm N 8 16 - - - - - - - 14.3 1015.2 0.0
23/05:00pm NNW 8 15 - - - - - - - 14.5 1015.4 0.0
23/04:30pm N 9 20 - - - - - - - 14.7 1015.3 0.0
23/04:00pm N 8 14 - - - - - - - 14.9 1015.5 0.0
23/03:30pm NNW 8 15 - - - - - - - 15.1 1015.7 0.0
23/03:00pm NNW 10 20 - - - - - - - 15.5 1015.8 0.0
23/02:30pm NNW 9 15 - - - - - - - 15.4 1015.8 0.0
23/02:00pm NNW 10 17 - - - - - - - 15.6 1016.2 0.0
23/01:30pm NNW 8 17 - - - - - - - 15.6 1016.6 0.0
23/01:00pm NNW 11 17 - - - - - - - 15.4 1017.5 0.0
23/12:30pm NNW 11 19 - - - - - - - 15.7 1018.1 0.0
23/12:00pm NNW 8 15 - - - - - - - 15.3 1018.9 0.0
23/11:30am NNW 7 11 - - - - - - - 14.8 1019.7 0.0
23/11:00am NNW 7 13 - - - - - - - 14.4 1020.3 0.0
23/10:30am NNW 7 12 - - - - - - - 14.4 1020.7 0.0
23/10:00am NNW 8 12 - - - - - - - 14.0 1020.6 0.0
23/09:30am NNW 9 15 - - - - - - - 14.1 1020.9 0.0
23/09:00am NNW 8 13 - - - - - - - 13.1 1020.7 0.6
23/08:30am NNW 7 12 - - - - - - - 12.6 1020.6 0.6
23/08:00am NNW 7 13 - - - - - - - 12.6 1020.5 0.6
23/07:30am N 5 10 - - - - - - - 12.3 1020.6 0.6
23/07:00am NNW 6 11 - - - - - - - 12.2 1020.6 0.6
23/06:30am NNW 4 8 - - - - - - - 11.7 1020.5 0.6
23/06:00am NNW 6 8 - - - - - - - 11.6 1020.2 0.6
23/05:30am NNW 6 10 - - - - - - - 11.8 1020.1 0.6
23/05:00am NNW 5 9 - - - - - - - 11.9 1020.2 0.6
23/04:30am NNW 6 11 - - - - - - - 12.2 1020.2 0.6
23/04:00am NNW 9 15 - - - - - - - 12.2 1020.7 0.6
23/03:30am NNW 5 12 - - - - - - - 12.0 1021.0 0.6
23/03:00am NNW 3 8 - - - - - - - 11.9 1021.4 0.6
23/02:30am NNW 6 9 - - - - - - - 11.7 1021.6 0.6
23/02:00am NNW 6 10 - - - - - - - 11.8 1022.0 0.6
23/01:30am NNW 5 9 - - - - - - - 11.5 1021.9 0.6
23/01:00am N 6 10 - - - - - - - 11.4 1022.3 0.6
23/12:30am N 5 9 - - - - - - - 11.4 1022.4 0.6

Other formats

Comma delimited format used in spreadsheet applications
http://www.bom.gov.au/fwo/IDV60701/IDV60701.94898.axf

JavaScript Object Notation format (JSON) in row-major order
http://www.bom.gov.au/fwo/IDV60701/IDV60701.94898.json

Data quality

Most of these data are generated automatically and are frequently updated. Quality checks on data are not normally performed. It is possible for incorrect values to appear. Refer to information at About Latest Weather Observations and please check the disclaimer before using these data.